createdAt,value
2016-03-04T00:00:01.429Z,704.14
2016-03-04T00:00:15.382Z,704.1
2016-03-04T00:00:29.729Z,704.17
2016-03-04T00:00:43.947Z,704.1
2016-03-04T00:00:57.932Z,704.18
2016-03-04T00:01:12.213Z,704.11
2016-03-04T00:01:26.419Z,704.13
2016-03-04T00:01:40.778Z,704.19
2016-03-04T00:01:54.763Z,704.16
2016-03-04T00:02:08.653Z,704.2
2016-03-04T00:02:22.766Z,704.22
2016-03-04T00:03:04.906Z,704.18
2016-03-04T00:03:18.988Z,704.2
2016-03-04T00:03:33.097Z,704.24
2016-03-04T00:03:47.097Z,704.23
2016-03-04T00:04:01.019Z,704.25
2016-03-04T00:04:15.222Z,704.25
2016-03-04T00:04:29.271Z,704.24
2016-03-04T00:04:43.661Z,704.24
2016-03-04T00:04:57.927Z,704.2
2016-03-04T00:05:12.146Z,704.21
2016-03-04T00:05:26.007Z,704.22
2016-03-04T00:05:40.085Z,704.23
2016-03-04T00:05:54.132Z,704.24
2016-03-04T00:06:07.429Z,704.24
2016-03-04T00:06:21.823Z,704.27
2016-03-04T00:06:35.807Z,704.28
2016-03-04T00:06:49.838Z,704.26
2016-03-04T00:07:03.901Z,704.3
2016-03-04T00:07:18.076Z,704.28
2016-03-04T00:07:32.185Z,704.25
2016-03-04T00:07:46.294Z,704.29
2016-03-04T00:08:00.404Z,704.22
2016-03-04T00:08:14.419Z,704.32
2016-03-04T00:08:28.360Z,704.27
2016-03-04T00:08:42.626Z,704.27
2016-03-04T00:08:57.016Z,704.25
2016-03-04T00:09:11.188Z,704.26
2016-03-04T00:09:25.410Z,704.28
2016-03-04T00:09:39.613Z,704.26
2016-03-04T00:09:53.613Z,704.29
2016-03-04T00:10:07.113Z,704.31
2016-03-04T00:10:21.366Z,704.31
2016-03-04T00:10:35.413Z,704.31
2016-03-04T00:10:49.350Z,704.31
2016-03-04T00:11:03.413Z,704.3
2016-03-04T00:11:17.852Z,704.27
2016-03-04T00:11:32.040Z,704.32
2016-03-04T00:11:46.305Z,704.29
2016-03-04T00:12:00.399Z,704.29
2016-03-04T00:12:14.243Z,704.29
2016-03-04T00:12:28.246Z,704.27
2016-03-04T00:12:42.605Z,704.29
2016-03-04T00:12:56.574Z,704.28
2016-03-04T00:13:10.058Z,704.29
2016-03-04T00:13:24.248Z,704.28
2016-03-04T00:13:38.467Z,704.28
2016-03-04T00:13:52.326Z,704.29
2016-03-04T00:14:06.326Z,704.26
2016-03-04T00:14:20.657Z,704.32
2016-03-04T00:14:34.782Z,704.32
2016-03-04T00:14:48.923Z,704.31
2016-03-04T00:15:02.985Z,704.32
2016-03-04T00:15:16.926Z,704.34
2016-03-04T00:15:31.020Z,704.27
2016-03-04T00:15:45.176Z,704.31
2016-03-04T00:15:59.238Z,704.31
2016-03-04T00:16:13.426Z,704.29
2016-03-04T00:16:27.850Z,704.3
2016-03-04T00:16:42.022Z,704.29
2016-03-04T00:16:56.100Z,704.31
2016-03-04T00:17:10.256Z,704.34
2016-03-04T00:17:24.431Z,704.32
2016-03-04T00:17:38.431Z,704.34
2016-03-04T00:17:52.462Z,704.3
2016-03-04T00:18:06.571Z,704.34
2016-03-04T00:18:20.590Z,704.35
2016-03-04T00:18:34.621Z,704.34
2016-03-04T00:18:48.856Z,704.31
2016-03-04T00:19:02.903Z,704.29
2016-03-04T00:19:16.983Z,704.3
2016-03-04T00:19:31.389Z,704.33
2016-03-04T00:19:45.483Z,704.33
2016-03-04T00:20:00.030Z,704.37
2016-03-04T00:20:14.311Z,704.31
2016-03-04T00:20:28.517Z,704.35
2016-03-04T00:20:42.579Z,704.38
2016-03-04T00:20:58.111Z,704.34
2016-03-04T00:21:12.939Z,704.35
2016-03-04T00:21:28.114Z,704.39
2016-03-04T00:21:42.957Z,704.37
2016-03-04T00:21:57.817Z,704.38
2016-03-04T00:22:12.114Z,704.34
2016-03-04T00:22:26.834Z,704.36
2016-03-04T00:22:41.975Z,704.37
2016-03-04T00:22:56.975Z,704.42
2016-03-04T00:23:11.850Z,704.38
2016-03-04T00:23:26.681Z,704.36
2016-03-04T00:23:40.306Z,704.37
2016-03-04T00:23:54.478Z,704.37
2016-03-04T00:24:09.353Z,704.41
2016-03-04T00:24:24.106Z,704.4
2016-03-04T00:24:38.637Z,704.41
2016-03-04T00:24:53.559Z,704.41
2016-03-04T00:25:08.825Z,704.44
2016-03-04T00:25:23.672Z,704.42
2016-03-04T00:25:38.265Z,704.45
2016-03-04T00:25:52.843Z,704.41
2016-03-04T00:26:07.843Z,704.41
2016-03-04T00:26:22.815Z,704.42
2016-03-04T00:26:36.768Z,704.4
2016-03-04T00:26:50.706Z,704.44
2016-03-04T00:27:05.909Z,704.43
2016-03-04T00:27:20.644Z,704.43
2016-03-04T00:27:34.722Z,704.39
2016-03-04T00:27:49.347Z,704.38
2016-03-04T00:28:07.254Z,704.42
2016-03-04T00:28:22.273Z,704.44
2016-03-04T00:28:37.289Z,704.44
2016-03-04T00:28:51.258Z,704.4
2016-03-04T00:29:06.539Z,704.46
2016-03-04T00:29:21.244Z,704.41
2016-03-04T00:29:36.057Z,704.45
2016-03-04T00:29:50.744Z,704.41
2016-03-04T00:30:05.244Z,704.4
2016-03-04T00:30:20.169Z,704.41
2016-03-04T00:30:34.278Z,704.42
2016-03-04T00:30:49.002Z,704.44
2016-03-04T00:31:03.205Z,704.46
2016-03-04T00:31:17.801Z,704.46
2016-03-04T00:31:32.207Z,704.41
2016-03-04T00:31:47.004Z,704.45
2016-03-04T00:32:01.696Z,704.41
2016-03-04T00:32:15.743Z,704.42
2016-03-04T00:32:30.481Z,704.41
2016-03-04T00:32:45.027Z,704.42
2016-03-04T00:33:03.168Z,704.47
2016-03-04T00:33:17.687Z,704.45
2016-03-04T00:33:32.655Z,704.5
2016-03-04T00:33:47.640Z,704.44
2016-03-04T00:34:02.437Z,704.46
2016-03-04T00:34:17.140Z,704.47
2016-03-04T00:34:31.940Z,704.46
2016-03-04T00:34:46.721Z,704.49
2016-03-04T00:35:01.330Z,704.47
2016-03-04T00:35:16.518Z,704.45
2016-03-04T00:35:30.568Z,704.47
2016-03-04T00:35:45.271Z,704.46
2016-03-04T00:36:00.286Z,704.46
2016-03-04T00:36:14.302Z,704.45
2016-03-04T00:36:28.913Z,704.48
2016-03-04T00:36:43.726Z,704.44
2016-03-04T00:36:59.117Z,704.47
2016-03-04T00:37:14.085Z,704.53
2016-03-04T00:37:28.869Z,704.56
2016-03-04T00:37:43.462Z,704.46
2016-03-04T00:37:58.290Z,704.46
2016-03-04T00:38:13.212Z,704.47
2016-03-04T00:38:28.012Z,704.51
2016-03-04T00:38:42.872Z,704.45
2016-03-04T00:38:57.762Z,704.47
2016-03-04T00:39:12.465Z,704.57
2016-03-04T00:39:27.360Z,704.45
2016-03-04T00:39:42.235Z,704.46
2016-03-04T00:39:57.219Z,704.49
2016-03-04T00:40:12.079Z,704.47
2016-03-04T00:40:27.049Z,704.49
2016-03-04T00:40:41.612Z,704.49
2016-03-04T00:40:56.549Z,704.49
2016-03-04T00:41:11.096Z,704.36
2016-03-04T00:41:26.052Z,704.36
2016-03-04T00:41:40.818Z,704.44
2016-03-04T00:41:55.521Z,704.39
2016-03-04T00:42:10.224Z,704.35
2016-03-04T00:42:25.179Z,704.35
2016-03-04T00:42:39.976Z,704.34
2016-03-04T00:42:55.054Z,704.42
2016-03-04T00:43:10.039Z,704.38
2016-03-04T00:43:24.901Z,704.36
2016-03-04T00:43:39.823Z,704.37
2016-03-04T00:43:54.823Z,704.37
2016-03-04T00:44:09.698Z,704.38
2016-03-04T00:44:24.466Z,704.41
2016-03-04T00:44:39.341Z,704.42
2016-03-04T00:44:54.122Z,704.41
2016-03-04T00:45:09.419Z,704.42
2016-03-04T00:45:24.297Z,704.38
2016-03-04T00:45:39.359Z,704.4
2016-03-04T00:45:53.547Z,704.41
2016-03-04T00:46:08.187Z,704.41
2016-03-04T00:46:23.144Z,704.42
2016-03-04T00:46:38.362Z,704.44
2016-03-04T00:46:52.925Z,704.51
2016-03-04T00:47:36.381Z,704.45
2016-03-04T00:47:51.037Z,704.45
2016-03-04T00:48:06.037Z,704.55
2016-03-04T00:48:20.634Z,704.31
2016-03-04T00:48:35.196Z,704.41
2016-03-04T00:48:50.056Z,704.5
2016-03-04T00:49:05.103Z,704.35
2016-03-04T00:49:20.464Z,704.38
2016-03-04T00:49:35.167Z,704.36
2016-03-04T00:49:49.792Z,704.31
2016-03-04T00:50:04.495Z,704.36
2016-03-04T00:50:19.717Z,704.37
2016-03-04T00:50:34.358Z,704.34
2016-03-04T00:50:49.139Z,704.32
2016-03-04T00:51:03.873Z,704.3
2016-03-04T00:51:19.250Z,704.43
2016-03-04T00:51:34.110Z,704.23
2016-03-04T00:51:48.828Z,704.26
2016-03-04T00:52:03.766Z,704.37
2016-03-04T00:52:18.661Z,704.32
2016-03-04T00:52:33.614Z,704.29
2016-03-04T00:52:48.754Z,704.33
2016-03-04T00:53:03.801Z,704.45
2016-03-04T00:53:18.538Z,704.41
2016-03-04T00:53:33.272Z,704.28
2016-03-04T00:53:47.413Z,704.33
2016-03-04T00:54:16.147Z,704.42
2016-03-04T00:54:31.291Z,704.32
2016-03-04T00:54:49.306Z,704.25
2016-03-04T00:55:04.072Z,704.28
2016-03-04T00:55:28.325Z,704.22
2016-03-04T00:55:42.950Z,704.3
2016-03-04T00:55:57.590Z,704.21
2016-03-04T00:56:12.278Z,704.3
2016-03-04T00:56:26.281Z,704.33
2016-03-04T00:56:41.156Z,704.19
2016-03-04T00:56:55.984Z,704.26
2016-03-04T00:57:10.968Z,704.21
2016-03-04T00:57:25.627Z,704.34
2016-03-04T00:57:40.517Z,704.35
2016-03-04T00:57:55.549Z,704.28
2016-03-04T00:58:10.361Z,704.23
2016-03-04T00:58:25.614Z,704.23
2016-03-04T00:58:40.614Z,704.19
2016-03-04T00:58:54.520Z,704.22
2016-03-04T00:59:09.677Z,704.28
2016-03-04T00:59:24.523Z,704.23
2016-03-04T00:59:39.758Z,704.19
2016-03-04T00:59:54.492Z,704.23
2016-03-04T01:00:09.758Z,704.25
2016-03-04T01:00:24.698Z,704.28
2016-03-04T01:00:39.823Z,704.21
2016-03-04T01:01:07.870Z,704.23
2016-03-04T01:01:22.763Z,704.28
2016-03-04T01:01:37.497Z,704.21
2016-03-04T01:01:50.888Z,704.21
2016-03-04T01:02:04.513Z,704.25
2016-03-04T01:02:19.453Z,704.23
2016-03-04T01:02:34.281Z,704.25
2016-03-04T01:02:49.422Z,704.28
2016-03-04T01:03:03.859Z,704.3
2016-03-04T01:03:18.344Z,704.29
2016-03-04T01:03:33.159Z,704.3
2016-03-04T01:03:48.222Z,704.31
2016-03-04T01:04:02.378Z,704.3
2016-03-04T01:04:17.566Z,704.29
2016-03-04T01:04:32.739Z,704.28
2016-03-04T01:04:47.396Z,704.18
2016-03-04T01:05:02.208Z,704.21
2016-03-04T01:05:17.005Z,704.27
2016-03-04T01:05:31.712Z,704.2
2016-03-04T01:05:46.478Z,704.2
2016-03-04T01:06:01.556Z,704.26
2016-03-04T01:06:16.197Z,704.27
2016-03-04T01:06:31.011Z,704.34
2016-03-04T01:06:45.730Z,704.23
2016-03-04T01:07:00.527Z,704.18
2016-03-04T01:07:14.683Z,704.19
2016-03-04T01:07:29.358Z,704.27
2016-03-04T01:07:44.030Z,704.25
2016-03-04T01:07:58.998Z,704.28
2016-03-04T01:08:27.844Z,704.33
2016-03-04T01:08:42.688Z,704.21
2016-03-04T01:08:57.641Z,704.3
2016-03-04T01:09:12.329Z,704.11
2016-03-04T01:09:27.035Z,704.27
2016-03-04T01:09:41.816Z,704.12
2016-03-04T01:09:56.472Z,704.11
2016-03-04T01:10:10.988Z,704.07
2016-03-04T01:10:25.928Z,704.14
2016-03-04T01:10:40.881Z,704.21
2016-03-04T01:10:55.710Z,704.13
2016-03-04T01:11:10.366Z,704.16
2016-03-04T01:11:24.994Z,704.3
2016-03-04T01:11:39.963Z,704.29
2016-03-04T01:11:54.556Z,704.22
2016-03-04T01:12:09.509Z,704.17
2016-03-04T01:12:24.136Z,704.23
2016-03-04T01:12:39.027Z,704.15
2016-03-04T01:12:53.980Z,704.22
2016-03-04T01:13:09.433Z,704.31
2016-03-04T01:13:24.530Z,704.3
2016-03-04T01:13:39.030Z,704.32
2016-03-04T01:13:54.014Z,704.25
2016-03-04T01:14:08.936Z,704.3
2016-03-04T01:14:23.767Z,704.35
2016-03-04T01:14:38.502Z,704.21
2016-03-04T01:14:53.080Z,704.24
2016-03-04T01:15:07.627Z,704.24
2016-03-04T01:15:22.613Z,704.23
2016-03-04T01:15:37.504Z,704.34
2016-03-04T01:15:51.988Z,704.19
2016-03-04T01:16:06.629Z,704.26
2016-03-04T01:16:21.382Z,704.23
2016-03-04T01:16:35.944Z,704.24
2016-03-04T01:16:51.179Z,704.13
2016-03-04T01:17:05.835Z,704.37
2016-03-04T01:17:20.979Z,704.34
2016-03-04T01:17:38.932Z,704.19
2016-03-04T01:17:52.916Z,704.31
2016-03-04T01:18:07.588Z,704.24
2016-03-04T01:18:22.199Z,704.2
2016-03-04T01:18:37.199Z,704.13
2016-03-04T01:18:51.668Z,704.12
2016-03-04T01:19:06.496Z,704.21
2016-03-04T01:19:21.545Z,704.05
2016-03-04T01:19:36.373Z,704.1
2016-03-04T01:19:51.108Z,704.1
2016-03-04T01:20:06.045Z,704.22
2016-03-04T01:20:21.205Z,704.06
2016-03-04T01:20:36.893Z,704.2
2016-03-04T01:20:51.393Z,704.17
2016-03-04T01:21:06.315Z,704.18
2016-03-04T01:21:21.270Z,704.21
2016-03-04T01:21:35.910Z,704.27
2016-03-04T01:21:50.551Z,704.17
2016-03-04T01:22:05.301Z,704.1
2016-03-04T01:22:20.367Z,704.3
2016-03-04T01:22:34.992Z,704.23
2016-03-04T01:22:49.820Z,704.22
2016-03-04T01:23:04.773Z,704.25
2016-03-04T01:23:19.476Z,704.11
2016-03-04T01:23:34.212Z,704.13
2016-03-04T01:23:48.931Z,704.15
2016-03-04T01:24:03.853Z,704.13
2016-03-04T01:24:18.806Z,703.99
2016-03-04T01:24:33.965Z,704.07
2016-03-04T01:24:48.731Z,704.13
2016-03-04T01:25:03.465Z,704.09
2016-03-04T01:25:18.106Z,704.27
2016-03-04T01:25:32.703Z,704.11
2016-03-04T01:25:47.875Z,704.19
2016-03-04T01:26:06.093Z,704.28
2016-03-04T01:26:20.862Z,704.17
2016-03-04T01:26:35.643Z,704.19
2016-03-04T01:26:50.440Z,704.26
2016-03-04T01:27:04.971Z,704.13
2016-03-04T01:27:22.958Z,704.16
2016-03-04T01:27:37.583Z,704.26
2016-03-04T01:27:52.676Z,704.3
2016-03-04T01:28:07.411Z,704.31
2016-03-04T01:28:22.101Z,704.36
2016-03-04T01:28:35.914Z,704.29
2016-03-04T01:28:50.586Z,704.3
2016-03-04T01:29:05.351Z,704.27
2016-03-04T01:29:20.464Z,704.31
2016-03-04T01:29:35.261Z,704.26
2016-03-04T01:29:49.932Z,704.34
2016-03-04T01:30:04.776Z,704.32
2016-03-04T01:30:19.964Z,704.46
2016-03-04T01:30:33.669Z,704.28
2016-03-04T01:30:48.278Z,704.12
2016-03-04T01:31:03.309Z,704.34
2016-03-04T01:31:18.434Z,704.29
2016-03-04T01:31:33.234Z,704.2
2016-03-04T01:31:50.891Z,704.31
2016-03-04T01:32:05.703Z,704.16
2016-03-04T01:32:20.784Z,704.08
2016-03-04T01:32:35.956Z,704.28
2016-03-04T01:32:51.112Z,704.26
2016-03-04T01:33:09.190Z,704.04
2016-03-04T01:33:23.865Z,704.37
2016-03-04T01:33:38.647Z,704.34
2016-03-04T01:33:53.490Z,704.36
2016-03-04T01:34:07.975Z,704.26
2016-03-04T01:34:22.742Z,704.27
2016-03-04T01:34:37.461Z,704.21
2016-03-04T01:34:52.383Z,704.27
2016-03-04T01:35:07.742Z,704.25
2016-03-04T01:35:22.355Z,704.23
2016-03-04T01:35:37.198Z,704.25
2016-03-04T01:35:51.823Z,704.19
2016-03-04T01:36:06.714Z,704.18
2016-03-04T01:36:21.419Z,703.85
2016-03-04T01:36:35.966Z,704.13
2016-03-04T01:36:50.904Z,703.98
2016-03-04T01:37:05.497Z,704.11
2016-03-04T01:37:20.560Z,704.21
2016-03-04T01:37:35.141Z,703.98
2016-03-04T01:37:49.938Z,704.18
2016-03-04T01:38:05.063Z,704.15
2016-03-04T01:38:19.797Z,704.13
2016-03-04T01:38:34.487Z,704.22
2016-03-04T01:38:48.987Z,704.09
2016-03-04T01:39:03.830Z,703.97
2016-03-04T01:39:18.440Z,704.11
2016-03-04T01:39:32.194Z,704.01
2016-03-04T01:39:49.725Z,703.94
2016-03-04T01:40:04.256Z,704.27
2016-03-04T01:40:19.553Z,704.25
2016-03-04T01:40:34.461Z,704.13
2016-03-04T01:40:49.243Z,703.84
2016-03-04T01:41:04.008Z,704.33
2016-03-04T01:41:19.102Z,704.08
2016-03-04T01:41:33.746Z,704.16
2016-03-04T01:41:48.371Z,703.99
2016-03-04T01:42:03.011Z,704.04
2016-03-04T01:42:17.808Z,704.18
2016-03-04T01:42:32.904Z,704.14
2016-03-04T01:42:47.341Z,703.9
2016-03-04T01:43:15.904Z,704.07
2016-03-04T01:43:30.610Z,704.29
2016-03-04T01:43:45.360Z,704.15
2016-03-04T01:44:00.219Z,704.12
2016-03-04T01:44:15.266Z,703.99
2016-03-04T01:44:43.957Z,704.06
2016-03-04T01:44:58.519Z,703.91
2016-03-04T01:45:13.629Z,703.96
2016-03-04T01:45:28.163Z,703.99
2016-03-04T01:45:42.725Z,704.12
2016-03-04T01:45:57.944Z,704.17
2016-03-04T01:46:11.757Z,704.22
2016-03-04T01:46:26.385Z,704.28
2016-03-04T01:46:41.228Z,704.1
2016-03-04T01:46:56.135Z,704.26
2016-03-04T01:47:11.307Z,704.07
2016-03-04T01:47:26.184Z,703.94
2016-03-04T01:47:41.590Z,703.96
2016-03-04T01:47:56.496Z,703.9
2016-03-04T01:48:10.699Z,703.89
2016-03-04T01:48:25.843Z,704.16
2016-03-04T01:48:40.608Z,704.17
2016-03-04T01:48:55.702Z,704.01
2016-03-04T01:49:10.749Z,704.11
2016-03-04T01:49:26.346Z,704.23
2016-03-04T01:49:55.033Z,704.18
2016-03-04T01:50:10.158Z,704.05
2016-03-04T01:50:23.957Z,704.13
2016-03-04T01:50:38.770Z,703.94
2016-03-04T01:50:53.723Z,704.02
2016-03-04T01:51:22.303Z,704.18
2016-03-04T01:51:37.365Z,704.08
2016-03-04T01:51:52.147Z,703.86
2016-03-04T01:52:06.834Z,704.27
2016-03-04T01:52:21.651Z,704.14
2016-03-04T01:52:36.963Z,704.08
2016-03-04T01:52:51.651Z,703.99
2016-03-04T01:53:05.448Z,704.01
2016-03-04T01:53:20.432Z,704.16
2016-03-04T01:53:35.122Z,704.21
2016-03-04T01:53:49.841Z,704.07
2016-03-04T01:54:04.779Z,704
2016-03-04T01:54:18.951Z,704.12
2016-03-04T01:54:33.968Z,704.02
2016-03-04T01:54:48.953Z,704
2016-03-04T01:55:04.187Z,704.22
2016-03-04T01:55:19.624Z,704.1
2016-03-04T01:55:34.595Z,703.95
2016-03-04T01:55:52.673Z,704.24
2016-03-04T01:56:06.908Z,704.22
2016-03-04T01:56:22.395Z,704.02
2016-03-04T01:56:37.129Z,704.07
2016-03-04T01:56:52.114Z,704.16
2016-03-04T01:57:07.114Z,704.1
2016-03-04T01:57:21.726Z,704.18
2016-03-04T01:57:36.773Z,704.04
2016-03-04T01:57:51.804Z,704.12
2016-03-04T01:58:06.773Z,704.18
2016-03-04T01:58:21.679Z,704.22
2016-03-04T01:58:36.916Z,704.13
2016-03-04T01:58:51.806Z,704.18
2016-03-04T01:59:06.759Z,703.99
2016-03-04T01:59:21.759Z,703.97
2016-03-04T01:59:36.512Z,704.16
2016-03-04T01:59:51.309Z,704.13
2016-03-04T02:00:05.778Z,704.09
2016-03-04T02:00:20.372Z,704.16
2016-03-04T02:00:35.172Z,704.03
2016-03-04T02:00:49.734Z,704.08
2016-03-04T02:01:04.406Z,704.07
2016-03-04T02:01:19.437Z,703.92
2016-03-04T02:01:34.456Z,703.89
2016-03-04T02:01:48.425Z,703.99
2016-03-04T02:02:03.581Z,704.01
2016-03-04T02:02:18.581Z,703.72
2016-03-04T02:02:33.708Z,703.8
2016-03-04T02:02:48.474Z,703.99
2016-03-04T02:03:03.505Z,703.81
2016-03-04T02:03:17.724Z,704.04
2016-03-04T02:03:32.696Z,703.99
2016-03-04T02:03:47.399Z,703.78
2016-03-04T02:04:02.634Z,704.04
2016-03-04T02:04:17.759Z,704.01
2016-03-04T02:04:32.480Z,704.13
2016-03-04T02:04:46.526Z,703.85
2016-03-04T02:05:01.464Z,703.63
2016-03-04T02:05:16.558Z,703.97
2016-03-04T02:05:31.373Z,704.08
2016-03-04T02:05:45.763Z,703.82
2016-03-04T02:06:00.138Z,704.03
2016-03-04T02:06:14.638Z,704.03
2016-03-04T02:06:29.110Z,704.04
2016-03-04T02:06:44.250Z,703.75
2016-03-04T02:06:59.281Z,703.94
2016-03-04T02:07:13.656Z,703.81
2016-03-04T02:07:28.846Z,703.6
2016-03-04T02:07:43.721Z,703.75
2016-03-04T02:07:58.752Z,704.07
2016-03-04T02:08:12.705Z,703.94
2016-03-04T02:08:27.271Z,703.71
2016-03-04T02:08:42.380Z,703.9
2016-03-04T02:08:56.880Z,703.62
2016-03-04T02:09:12.208Z,703.98
2016-03-04T02:09:26.289Z,703.92
2016-03-04T02:09:55.305Z,703.98
2016-03-04T02:10:10.258Z,703.97
2016-03-04T02:10:28.135Z,703.97
2016-03-04T02:10:42.760Z,703.76
2016-03-04T02:10:57.604Z,703.87
2016-03-04T02:11:12.307Z,703.69
2016-03-04T02:11:26.951Z,703.99
2016-03-04T02:11:41.794Z,703.94
2016-03-04T02:11:56.763Z,704.06
2016-03-04T02:12:10.763Z,703.7
2016-03-04T02:12:25.829Z,703.78
2016-03-04T02:12:41.016Z,703.96
2016-03-04T02:12:55.751Z,703.6
2016-03-04T02:13:10.532Z,703.82
2016-03-04T02:13:25.612Z,703.63
2016-03-04T02:13:40.549Z,703.86
2016-03-04T02:13:55.878Z,703.92
2016-03-04T02:14:09.924Z,703.99
2016-03-04T02:14:25.052Z,704.12
2016-03-04T02:14:39.943Z,703.97
2016-03-04T02:15:09.381Z,703.97
2016-03-04T02:15:24.165Z,703.73
2016-03-04T02:15:38.759Z,703.98
2016-03-04T02:15:53.649Z,704.03
2016-03-04T02:16:08.727Z,704
2016-03-04T02:16:23.574Z,703.87
2016-03-04T02:16:37.371Z,704.06
2016-03-04T02:16:52.324Z,703.98
2016-03-04T02:17:07.183Z,704.1
2016-03-04T02:17:25.185Z,703.99
2016-03-04T02:17:40.060Z,703.8
2016-03-04T02:17:55.185Z,703.85
2016-03-04T02:18:09.810Z,704.04
2016-03-04T02:18:24.688Z,704.01
2016-03-04T02:18:39.657Z,703.95
2016-03-04T02:18:54.751Z,703.98
2016-03-04T02:19:10.157Z,703.93
2016-03-04T02:19:25.020Z,703.95
2016-03-04T02:19:40.035Z,703.93
2016-03-04T02:19:55.160Z,704.03
2016-03-04T02:20:10.238Z,703.99
2016-03-04T02:20:24.897Z,703.9
2016-03-04T02:20:39.772Z,704.02
2016-03-04T02:20:54.787Z,703.86
2016-03-04T02:21:09.193Z,703.77
2016-03-04T02:21:24.118Z,703.63
2016-03-04T02:21:38.571Z,703.76
2016-03-04T02:21:53.446Z,703.88
2016-03-04T02:22:08.212Z,703.65
2016-03-04T02:22:23.183Z,703.76
2016-03-04T02:22:37.839Z,703.72
2016-03-04T02:22:52.573Z,703.96
2016-03-04T02:23:07.323Z,703.97
2016-03-04T02:23:21.839Z,703.7
2016-03-04T02:23:35.576Z,703.48
2016-03-04T02:23:50.576Z,703.57
2016-03-04T02:24:05.420Z,703.73
2016-03-04T02:24:19.342Z,703.84
2016-03-04T02:24:34.220Z,703.79
2016-03-04T02:24:49.486Z,703.62
2016-03-04T02:25:04.751Z,703.69
2016-03-04T02:25:19.892Z,703.76
2016-03-04T02:25:34.864Z,703.87
2016-03-04T02:25:49.926Z,704.04
2016-03-04T02:26:04.489Z,703.92
2016-03-04T02:26:19.332Z,703.97
2016-03-04T02:26:34.100Z,703.84
2016-03-04T02:27:02.917Z,704.15
2016-03-04T02:27:17.480Z,703.71
2016-03-04T02:27:32.467Z,703.93
2016-03-04T02:27:47.342Z,703.96
2016-03-04T02:28:02.358Z,703.88
2016-03-04T02:28:17.014Z,703.86
2016-03-04T02:28:32.157Z,703.94
2016-03-04T02:28:47.016Z,703.94
2016-03-04T02:29:01.110Z,703.9
2016-03-04T02:29:16.016Z,703.97
2016-03-04T02:29:30.816Z,703.99
2016-03-04T02:29:45.957Z,703.88
2016-03-04T02:30:01.082Z,703.78
2016-03-04T02:30:15.941Z,703.83
2016-03-04T02:30:30.585Z,703.96
2016-03-04T02:30:45.538Z,703.79
2016-03-04T02:31:00.319Z,703.57
2016-03-04T02:31:15.288Z,703.71
2016-03-04T02:31:30.166Z,703.72
2016-03-04T02:31:45.166Z,703.76
2016-03-04T02:31:59.931Z,703.94
2016-03-04T02:32:14.744Z,703.98
2016-03-04T02:32:43.418Z,703.87
2016-03-04T02:32:58.637Z,703.8
2016-03-04T02:33:13.699Z,703.95
2016-03-04T02:33:28.530Z,703.68
2016-03-04T02:33:43.421Z,704.12
2016-03-04T02:33:58.421Z,703.72
2016-03-04T02:34:13.327Z,703.86
2016-03-04T02:34:28.346Z,703.84
2016-03-04T02:34:43.689Z,703.97
2016-03-04T02:34:58.096Z,703.91
2016-03-04T02:35:13.283Z,703.75
2016-03-04T02:35:28.146Z,703.85
2016-03-04T02:35:56.739Z,704.02
2016-03-04T02:36:11.927Z,703.81
2016-03-04T02:36:26.851Z,703.83
2016-03-04T02:36:41.241Z,703.85
2016-03-04T02:36:56.163Z,703.85
2016-03-04T02:37:11.273Z,703.93
2016-03-04T02:37:25.963Z,704.06
2016-03-04T02:37:41.041Z,703.92
2016-03-04T02:37:55.916Z,703.83
2016-03-04T02:38:11.057Z,703.92
2016-03-04T02:38:25.996Z,703.91
2016-03-04T02:38:41.293Z,703.79
2016-03-04T02:38:55.309Z,703.91
2016-03-04T02:39:10.278Z,703.65
2016-03-04T02:39:25.843Z,703.91
2016-03-04T02:39:40.796Z,704.08
2016-03-04T02:39:58.749Z,703.88
2016-03-04T02:40:13.921Z,703.94
2016-03-04T02:40:29.002Z,703.79
2016-03-04T02:40:43.862Z,704.14
2016-03-04T02:40:58.565Z,703.78
2016-03-04T02:41:12.721Z,703.74
2016-03-04T02:41:27.129Z,704.24
2016-03-04T02:41:41.942Z,703.81
2016-03-04T02:41:56.832Z,704.19
2016-03-04T02:42:11.629Z,703.95
2016-03-04T02:42:26.492Z,704.09
2016-03-04T02:42:41.304Z,703.85
2016-03-04T02:42:55.960Z,703.99
2016-03-04T02:43:13.820Z,703.94
2016-03-04T02:43:28.792Z,704.04
2016-03-04T02:43:43.635Z,703.86
2016-03-04T02:43:58.354Z,703.97
2016-03-04T02:44:13.026Z,704.02
2016-03-04T02:44:30.747Z,703.75
2016-03-04T02:44:45.637Z,704.02
2016-03-04T02:45:00.184Z,703.87
2016-03-04T02:45:15.184Z,703.63
2016-03-04T02:45:30.218Z,703.85
2016-03-04T02:45:44.922Z,703.97
2016-03-04T02:45:59.562Z,703.89
2016-03-04T02:46:14.281Z,704.18
2016-03-04T02:46:28.893Z,704.07
2016-03-04T02:46:43.893Z,704
2016-03-04T02:46:58.268Z,703.84
2016-03-04T02:47:13.081Z,703.9
2016-03-04T02:47:27.130Z,703.95
2016-03-04T02:48:25.476Z,704.03
2016-03-04T02:48:40.305Z,703.97
2016-03-04T02:48:55.133Z,703.93
2016-03-04T02:49:09.992Z,703.95
2016-03-04T02:49:24.839Z,703.99
2016-03-04T02:49:39.745Z,703.93
2016-03-04T02:49:54.901Z,704.09
2016-03-04T02:50:10.089Z,703.94
2016-03-04T02:50:24.904Z,703.81
2016-03-04T02:50:39.139Z,703.94
2016-03-04T02:50:53.795Z,703.77
2016-03-04T02:51:09.029Z,703.76
2016-03-04T02:51:23.936Z,703.88
2016-03-04T02:51:38.359Z,703.97
2016-03-04T02:51:53.078Z,703.67
2016-03-04T02:52:07.953Z,703.81
2016-03-04T02:52:22.875Z,703.78
2016-03-04T02:52:37.472Z,703.71
2016-03-04T02:52:52.206Z,703.85
2016-03-04T02:53:06.909Z,703.57
2016-03-04T02:53:21.612Z,703.92
2016-03-04T02:53:36.302Z,703.87
2016-03-04T02:53:51.411Z,703.78
2016-03-04T02:54:06.536Z,703.69
2016-03-04T02:54:21.677Z,703.94
2016-03-04T02:54:36.117Z,703.48
2016-03-04T02:54:50.774Z,703.64
2016-03-04T02:55:09.164Z,703.74
2016-03-04T02:55:23.946Z,703.56
2016-03-04T02:55:38.730Z,703.67
2016-03-04T02:55:53.636Z,703.64
2016-03-04T02:56:08.339Z,703.74
2016-03-04T02:56:23.042Z,703.66
2016-03-04T02:56:36.983Z,703.6
2016-03-04T02:56:51.108Z,703.88
2016-03-04T02:57:05.983Z,703.71
2016-03-04T02:57:24.030Z,703.78
2016-03-04T02:57:38.736Z,703.8
2016-03-04T02:57:53.595Z,703.75
2016-03-04T02:58:08.236Z,703.72
2016-03-04T02:58:22.845Z,703.82
2016-03-04T02:58:37.113Z,703.83
2016-03-04T02:58:52.066Z,703.85
2016-03-04T02:59:07.066Z,703.97
2016-03-04T02:59:22.207Z,703.82
2016-03-04T02:59:36.663Z,703.65
2016-03-04T02:59:51.116Z,703.86
2016-03-04T03:00:05.835Z,703.69
2016-03-04T03:00:20.819Z,703.69
2016-03-04T03:00:35.916Z,703.96
2016-03-04T03:00:50.775Z,703.82
2016-03-04T03:01:05.681Z,703.8
2016-03-04T03:01:21.009Z,703.78
2016-03-04T03:01:35.856Z,703.92
2016-03-04T03:01:50.794Z,703.89
2016-03-04T03:02:05.497Z,703.92
2016-03-04T03:02:20.341Z,703.76
2016-03-04T03:02:35.593Z,703.78
2016-03-04T03:02:50.546Z,703.66
2016-03-04T03:03:05.249Z,703.83
2016-03-04T03:03:18.936Z,703.44
2016-03-04T03:03:33.955Z,703.8
2016-03-04T03:03:48.408Z,703.91
2016-03-04T03:04:03.502Z,703.84
2016-03-04T03:04:21.596Z,703.78
2016-03-04T03:04:36.535Z,704
2016-03-04T03:05:05.082Z,703.82
2016-03-04T03:05:20.035Z,703.88
2016-03-04T03:05:34.601Z,703.81
2016-03-04T03:05:49.429Z,703.82
2016-03-04T03:06:03.554Z,703.94
2016-03-04T03:06:18.429Z,703.97
2016-03-04T03:06:33.712Z,704.01
2016-03-04T03:06:47.431Z,703.86
2016-03-04T03:07:02.649Z,704.06
2016-03-04T03:07:17.649Z,703.99
2016-03-04T03:07:46.465Z,704.01
2016-03-04T03:08:01.246Z,703.97
2016-03-04T03:08:15.871Z,703.99
2016-03-04T03:08:30.937Z,703.89
2016-03-04T03:08:45.530Z,703.94
2016-03-04T03:09:00.499Z,704.05
2016-03-04T03:09:15.296Z,703.84
2016-03-04T03:09:30.299Z,703.77
2016-03-04T03:09:44.971Z,703.98
2016-03-04T03:09:59.862Z,703.98